Time;durP1;ratioP1;P1;durP2;ratioP2;P2;SDS_P1;SDS_P2;PMS_P1;PMS_P2;Temp;Humidity;BMP_temperature;BMP_pressure;BME280_temperature;BME280_humidity;BME280_pressure;Samples;Min_cycle;Max_cycle;Signal;HPM_P1;HPM_P2
2023/10/16 00:01:51;;;;;;;26.88;25.38;;;;;;;;;;4980819;28;20053;-63
2023/10/16 00:04:18;;;;;;;26.85;25.45;;;;;;;;;;4977456;28;20038;-65
2023/10/16 00:06:49;;;;;;;27.00;25.30;;;;;;;;;;4981162;28;20042;-65
2023/10/16 00:09:17;;;;;;;26.92;25.23;;;;;;;;;;4978011;28;20141;-63
2023/10/16 00:11:43;;;;;;;24.73;23.42;;;;;;;;;;4979240;28;20104;-65
2023/10/16 00:14:23;;;;;;;25.05;23.67;;;;;;;;;;4983697;28;20130;-65
2023/10/16 00:16:50;;;;;;;22.50;21.30;;;;;;;;;;4983369;28;20080;-65
2023/10/16 00:19:16;;;;;;;26.40;25.00;;;;;;;;;;4979938;28;20092;-65
2023/10/16 00:21:44;;;;;;;24.95;23.65;;;;;;;;;;4981154;28;20037;-65
2023/10/16 00:24:12;;;;;;;25.60;24.20;;;;;;;;;;4979118;28;20049;-65
2023/10/16 00:26:42;;;;;;;24.95;23.65;;;;;;;;;;4981263;28;20058;-65
2023/10/16 00:29:41;;;;;;;22.27;21.08;;;;;;;;;;4981246;28;20034;-65
2023/10/16 00:32:00;;;;;;;;;;;;;;;;;;4979600;28;20042;-65
2023/10/16 00:34:25;;;;;;;20.98;19.88;;;;;;;;;;4981320;28;19932;-65
2023/10/16 00:36:54;;;;;;;23.35;21.95;;;;;;;;;;4976215;28;20104;-65
2023/10/16 00:39:20;;;;;;;24.85;23.55;;;;;;;;;;4981388;28;20030;-65
2023/10/16 00:41:50;;;;;;;24.58;23.27;;;;;;;;;;4966563;28;20117;-65
2023/10/16 00:44:17;;;;;;;25.50;24.13;;;;;;;;;;4980336;28;20038;-65
2023/10/16 00:46:46;;;;;;;22.02;20.80;;;;;;;;;;4983207;28;20030;-65
2023/10/16 00:49:13;;;;;;;22.02;20.85;;;;;;;;;;4981426;28;20552;-65
2023/10/16 00:51:38;;;;;;;23.17;21.92;;;;;;;;;;4979746;28;20035;-66
2023/10/16 00:54:15;;;;;;;22.25;21.05;;;;;;;;;;4983487;28;20034;-66
2023/10/16 00:56:42;;;;;;;21.83;20.23;;;;;;;;;;4983730;28;20026;-66
2023/10/16 00:59:08;;;;;;;18.90;17.85;;;;;;;;;;4981106;28;20046;-65
2023/10/16 01:01:43;;;;;;;20.52;19.38;;;;;;;;;;4982325;28;20039;-65
2023/10/16 01:04:09;;;;;;;17.13;16.20;;;;;;;;;;4979578;28;20465;-66
2023/10/16 01:06:38;;;;;;;18.33;17.20;;;;;;;;;;4980028;28;20034;-65
2023/10/16 01:09:12;;;;;;;31.55;29.90;;;;;;;;;;4976493;28;20042;-65
2023/10/16 01:11:38;;;;;;;41.90;39.75;;;;;;;;;;4979130;28;20191;-65
2023/10/16 01:14:05;;;;;;;41.42;39.30;;;;;;;;;;4976302;28;20085;-63
2023/10/16 01:16:31;;;;;;;33.65;31.80;;;;;;;;;;4981333;28;20179;-66
2023/10/16 01:19:01;;;;;;;25.15;23.80;;;;;;;;;;4980457;28;20121;-65
2023/10/16 01:21:28;;;;;;;16.88;15.95;;;;;;;;;;4981183;28;20066;-65
2023/10/16 01:23:55;;;;;;;16.75;15.82;;;;;;;;;;4979970;28;20049;-65
2023/10/16 01:26:21;;;;;;;17.55;16.55;;;;;;;;;;4981840;28;20306;-65
2023/10/16 01:28:46;;;;;;;16.35;15.43;;;;;;;;;;4984193;28;20031;-65
2023/10/16 01:31:13;;;;;;;16.02;15.13;;;;;;;;;;4979886;28;20487;-65
2023/10/16 01:33:44;;;;;;;15.48;14.57;;;;;;;;;;4976115;28;20154;-65
2023/10/16 01:36:10;;;;;;;16.48;15.55;;;;;;;;;;4979098;28;20038;-65
2023/10/16 01:38:36;;;;;;;15.73;14.82;;;;;;;;;;4977254;28;20030;-65
2023/10/16 01:41:05;;;;;;;20.05;18.60;;;;;;;;;;4976010;28;20093;-65
2023/10/16 01:43:32;;;;;;;16.58;15.65;;;;;;;;;;4976979;28;20054;-64
2023/10/16 01:46:07;;;;;;;15.77;14.75;;;;;;;;;;4978763;28;20034;-65
2023/10/16 01:48:33;;;;;;;17.30;16.30;;;;;;;;;;4979857;28;20669;-65
2023/10/16 01:51:00;;;;;;;21.90;20.70;;;;;;;;;;4978635;28;20054;-65
2023/10/16 01:53:26;;;;;;;23.35;22.10;;;;;;;;;;4975274;28;20026;-64
2023/10/16 01:55:56;;;;;;;29.02;27.45;;;;;;;;;;4976918;28;20069;-67
2023/10/16 01:58:22;;;;;;;27.27;25.85;;;;;;;;;;4979595;28;20096;-66
2023/10/16 02:00:48;;;;;;;31.15;29.40;;;;;;;;;;4980379;28;20360;-66
2023/10/16 02:03:17;;;;;;;26.17;24.77;;;;;;;;;;4981943;28;20030;-66
2023/10/16 02:05:45;;;;;;;22.15;20.95;;;;;;;;;;4980482;28;20038;-66
2023/10/16 02:08:14;;;;;;;21.85;20.65;;;;;;;;;;4978876;28;20038;-66
2023/10/16 02:10:43;;;;;;;20.70;19.60;;;;;;;;;;4979628;28;20397;-67
2023/10/16 02:13:10;;;;;;;25.83;24.38;;;;;;;;;;4975387;28;20027;-66
2023/10/16 02:15:36;;;;;;;31.90;30.08;;;;;;;;;;4978366;28;20114;-66
2023/10/16 02:18:18;;;;;;;29.98;28.38;;;;;;;;;;4981171;28;20154;-66
2023/10/16 02:20:49;;;;;;;29.90;28.30;;;;;;;;;;4981723;28;20451;-65
2023/10/16 02:23:15;;;;;;;33.33;31.58;;;;;;;;;;4980080;28;20031;-65
2023/10/16 02:25:41;;;;;;;37.78;34.20;;;;;;;;;;4979863;28;20038;-65
2023/10/16 02:28:08;;;;;;;37.33;35.35;;;;;;;;;;4977015;28;20140;-64
2023/10/16 02:30:41;;;;;;;39.63;37.55;;;;;;;;;;4977458;28;20720;-65
2023/10/16 02:33:15;;;;;;;40.35;38.30;;;;;;;;;;4983318;28;20034;-64
2023/10/16 02:35:48;;;;;;;38.25;36.28;;;;;;;;;;4969186;28;20034;-65
2023/10/16 02:38:23;;;;;;;37.33;35.42;;;;;;;;;;4983657;28;20038;-65
2023/10/16 02:40:50;;;;;;;33.88;32.13;;;;;;;;;;4982018;28;20440;-65
2023/10/16 02:43:18;;;;;;;32.40;30.70;;;;;;;;;;4982710;28;20093;-65
2023/10/16 02:45:47;;;;;;;23.65;22.38;;;;;;;;;;4988926;28;20033;-65
2023/10/16 02:48:16;;;;;;;17.63;16.67;;;;;;;;;;4980732;28;20125;-65
2023/10/16 02:50:53;;;;;;;16.70;15.77;;;;;;;;;;4979929;28;20125;-64
2023/10/16 02:53:21;;;;;;;16.83;15.80;;;;;;;;;;4983484;28;20077;-64
2023/10/16 02:55:49;;;;;;;17.40;16.42;;;;;;;;;;4985083;28;20673;-65
2023/10/16 02:58:15;;;;;;;21.55;20.38;;;;;;;;;;4983022;28;20034;-65
2023/10/16 03:00:49;;;;;;;25.13;23.77;;;;;;;;;;4983161;28;20117;-64
2023/10/16 03:03:18;;;;;;;27.45;26.02;;;;;;;;;;4980610;28;20033;-65
2023/10/16 03:05:44;;;;;;;30.63;29.02;;;;;;;;;;4982594;28;20042;-66
2023/10/16 03:08:10;;;;;;;28.83;27.27;;;;;;;;;;4981138;28;20054;-66
2023/10/16 03:10:36;;;;;;;28.05;26.55;;;;;;;;;;4984178;28;20085;-66
2023/10/16 03:13:05;;;;;;;28.23;26.70;;;;;;;;;;4983512;28;20030;-65
2023/10/16 03:15:33;;;;;;;25.42;24.10;;;;;;;;;;4982561;28;20038;-65
2023/10/16 03:18:00;;;;;;;28.70;27.20;;;;;;;;;;4981648;28;20034;-65
2023/10/16 03:20:35;;;;;;;39.20;37.20;;;;;;;;;;4982046;28;20555;-64
2023/10/16 03:23:06;;;;;;;42.05;39.90;;;;;;;;;;4980640;28;20153;-64
2023/10/16 03:25:50;;;;;;;38.20;36.22;;;;;;;;;;4984262;28;20137;-64
2023/10/16 03:28:17;;;;;;;29.45;27.90;;;;;;;;;;4982320;28;20113;-64
2023/10/16 03:30:43;;;;;;;29.25;27.70;;;;;;;;;;4981876;28;20109;-64
2023/10/16 03:33:14;;;;;;;30.65;29.00;;;;;;;;;;4984043;28;20983;-64
2023/10/16 03:35:45;;;;;;;31.43;29.70;;;;;;;;;;4982204;28;20126;-65
2023/10/16 03:38:11;;;;;;;31.52;29.88;;;;;;;;;;4982680;28;20285;-65
2023/10/16 03:40:37;;;;;;;30.35;28.75;;;;;;;;;;4982596;28;20074;-64
2023/10/16 03:43:03;;;;;;;31.75;30.08;;;;;;;;;;4979888;28;20030;-64
2023/10/16 03:45:28;;;;;;;27.08;25.65;;;;;;;;;;4981620;28;20727;-64
2023/10/16 03:47:57;;;;;;;27.10;25.63;;;;;;;;;;4983243;28;20049;-64
2023/10/16 03:50:26;;;;;;;23.17;21.88;;;;;;;;;;4981388;28;20066;-66
2023/10/16 03:52:54;;;;;;;18.80;17.75;;;;;;;;;;4981538;28;20104;-66
2023/10/16 03:55:24;;;;;;;15.52;14.65;;;;;;;;;;4981353;28;20039;-64
2023/10/16 03:57:53;;;;;;;13.35;12.57;;;;;;;;;;4983538;28;20039;-64
2023/10/16 04:00:25;;;;;;;14.85;14.00;;;;;;;;;;4979928;28;20464;-64
2023/10/16 04:02:51;;;;;;;16.70;15.75;;;;;;;;;;4981917;28;21139;-65
2023/10/16 04:08:01;;;;;;;16.55;15.63;;;;;;;;;;4980465;28;20121;-64
2023/10/16 04:10:29;;;;;;;15.65;14.77;;;;;;;;;;4980193;28;20121;-64
2023/10/16 04:12:58;;;;;;;14.25;13.35;;;;;;;;;;4980163;28;20038;-65
2023/10/16 04:31:44;;;;;;;29.63;28.08;;;;;;;;;;4979836;28;20030;-65
2023/10/16 04:53:08;;;;;;;44.13;41.83;;;;;;;;;;4981291;28;20179;-65
2023/10/16 05:20:52;;;;;;;26.45;25.05;;;;;;;;;;4982230;28;20053;-64
2023/10/16 06:14:47;;;;;;;23.35;22.08;;;;;;;;;;4983157;28;20049;-63
2023/10/16 06:17:13;;;;;;;24.00;22.65;;;;;;;;;;4981312;28;20023;-65
2023/10/16 06:19:42;;;;;;;23.77;22.42;;;;;;;;;;4983257;28;20445;-65
2023/10/16 06:22:08;;;;;;;18.98;17.92;;;;;;;;;;4981563;28;20108;-65
2023/10/16 06:24:41;;;;;;;16.95;15.95;;;;;;;;;;4985285;28;20439;-65
2023/10/16 06:27:10;;;;;;;15.93;15.02;;;;;;;;;;4979881;28;20038;-64
2023/10/16 06:29:41;;;;;;;18.23;17.23;;;;;;;;;;4981448;28;20528;-65
2023/10/16 06:32:19;;;;;;;18.03;16.93;;;;;;;;;;4982109;28;20046;-65
2023/10/16 06:35:00;;;;;;;14.52;13.73;;;;;;;;;;4982344;28;20069;-63
2023/10/16 06:37:31;;;;;;;15.82;14.93;;;;;;;;;;4980528;28;20045;-63
2023/10/16 06:40:16;;;;;;;16.25;15.32;;;;;;;;;;4979064;28;20034;-63
2023/10/16 06:42:45;;;;;;;16.10;15.20;;;;;;;;;;4980509;28;20042;-63
2023/10/16 06:45:19;;;;;;;17.52;16.48;;;;;;;;;;4983702;28;20047;-63
2023/10/16 06:47:48;;;;;;;14.75;13.88;;;;;;;;;;4964945;28;20104;-63
2023/10/16 06:52:53;;;;;;;17.98;16.98;;;;;;;;;;4982310;28;20038;-61
2023/10/16 06:55:19;;;;;;;21.55;20.35;;;;;;;;;;4984745;28;20030;-65
2023/10/16 06:57:44;;;;;;;20.77;19.58;;;;;;;;;;4980924;28;20129;-63
2023/10/16 07:00:25;;;;;;;20.98;19.83;;;;;;;;;;4986097;28;20351;-65
2023/10/16 07:02:54;;;;;;;22.60;21.40;;;;;;;;;;4986617;28;20089;-62
2023/10/16 07:05:24;;;;;;;22.13;20.92;;;;;;;;;;4985626;28;20045;-62
2023/10/16 07:07:52;;;;;;;27.77;26.13;;;;;;;;;;4981244;28;20030;-62
2023/10/16 07:10:17;;;;;;;30.95;29.33;;;;;;;;;;4984959;28;20038;-63
2023/10/16 07:13:02;;;;;;;28.17;26.65;;;;;;;;;;4982106;28;20342;-63
2023/10/16 07:15:29;;;;;;;24.85;23.52;;;;;;;;;;4984462;28;20034;-63
2023/10/16 07:17:56;;;;;;;20.23;19.13;;;;;;;;;;4981277;28;20042;-62
2023/10/16 07:20:30;;;;;;;19.23;18.13;;;;;;;;;;4977424;28;20460;-62
2023/10/16 07:23:09;;;;;;;17.55;16.55;;;;;;;;;;4982646;28;20117;-65
2023/10/16 07:25:47;;;;;;;16.35;15.15;;;;;;;;;;4982363;28;20034;-65
2023/10/16 07:28:13;;;;;;;17.33;16.30;;;;;;;;;;4975164;28;20108;-65
2023/10/16 07:30:42;;;;;;;18.30;17.30;;;;;;;;;;4982143;28;20034;-65
2023/10/16 07:33:14;;;;;;;19.13;18.05;;;;;;;;;;4976778;28;20069;-65
2023/10/16 07:35:46;;;;;;;19.50;18.40;;;;;;;;;;4980159;28;20037;-65
2023/10/16 07:38:13;;;;;;;18.90;17.85;;;;;;;;;;4978611;28;20493;-65
2023/10/16 07:40:38;;;;;;;18.45;17.35;;;;;;;;;;4977709;28;20026;-65
2023/10/16 07:43:05;;;;;;;18.08;16.98;;;;;;;;;;4981799;28;20034;-65
2023/10/16 07:45:32;;;;;;;20.00;18.52;;;;;;;;;;4980375;28;20027;-65
2023/10/16 07:48:07;;;;;;;19.00;17.95;;;;;;;;;;4980157;28;20026;-63
2023/10/16 07:50:38;;;;;;;18.83;17.67;;;;;;;;;;4979301;28;20030;-63
2023/10/16 07:53:05;;;;;;;16.30;15.40;;;;;;;;;;4979633;28;20035;-65
2023/10/16 07:55:40;;;;;;;17.30;16.30;;;;;;;;;;4983037;28;20046;-65
2023/10/16 07:58:15;;;;;;;17.73;16.73;;;;;;;;;;4980315;28;20026;-65
2023/10/16 08:01:17;;;;;;;17.90;16.90;;;;;;;;;;4978905;28;20065;-65
2023/10/16 08:03:46;;;;;;;16.90;15.80;;;;;;;;;;4978139;28;20049;-65
2023/10/16 08:06:17;;;;;;;17.23;16.23;;;;;;;;;;4981458;28;20092;-67
2023/10/16 08:08:48;;;;;;;19.02;17.98;;;;;;;;;;4976797;28;20035;-66
2023/10/16 08:11:18;;;;;;;16.02;15.02;;;;;;;;;;4963177;28;20038;-65
2023/10/16 08:13:49;;;;;;;15.97;14.97;;;;;;;;;;4978646;28;20027;-65
2023/10/16 08:16:21;;;;;;;17.40;16.40;;;;;;;;;;4980837;28;21172;-65
2023/10/16 08:18:51;;;;;;;15.82;14.82;;;;;;;;;;4978503;28;20531;-64
2023/10/16 08:21:26;;;;;;;16.17;15.18;;;;;;;;;;4977749;28;20034;-64
2023/10/16 08:23:58;;;;;;;15.70;14.80;;;;;;;;;;4977794;28;20034;-64
2023/10/16 08:26:30;;;;;;;17.73;16.52;;;;;;;;;;4980256;28;20121;-64
2023/10/16 08:29:11;;;;;;;15.77;14.88;;;;;;;;;;4980939;28;20125;-65
2023/10/16 08:31:55;;;;;;;15.98;15.07;;;;;;;;;;4979177;28;20073;-65
2023/10/16 08:34:21;;;;;;;24.77;14.63;;;;;;;;;;4981482;28;20069;-65
2023/10/16 08:36:50;;;;;;;17.42;16.30;;;;;;;;;;4979539;28;20065;-65
2023/10/16 08:39:18;;;;;;;16.38;15.38;;;;;;;;;;4979822;28;20062;-65
2023/10/16 08:44:15;;;;;;;17.88;16.58;;;;;;;;;;4978765;28;20033;-65
2023/10/16 08:47:32;;;;;;;16.67;15.57;;;;;;;;;;4979350;28;20591;-65
2023/10/16 08:49:39;;;;;;;16.02;15.02;;;;;;;;;;4978922;28;20061;-65
2023/10/16 08:52:06;;;;;;;15.57;14.68;;;;;;;;;;4979328;28;20496;-65
2023/10/16 08:57:19;;;;;;;17.20;16.20;;;;;;;;;;4977980;28;20458;-65
2023/10/16 08:59:46;;;;;;;15.90;15.00;;;;;;;;;;4982342;28;20053;-65
2023/10/16 09:02:13;;;;;;;16.23;15.07;;;;;;;;;;4983938;28;20044;-65
2023/10/16 09:04:41;;;;;;;16.80;15.80;;;;;;;;;;4977608;28;20050;-65
2023/10/16 09:07:07;;;;;;;16.88;15.50;;;;;;;;;;4977442;28;20037;-65
2023/10/16 09:09:32;;;;;;;16.20;15.25;;;;;;;;;;4979777;28;20038;-65
2023/10/16 09:12:10;;;;;;;17.10;16.10;;;;;;;;;;4980819;28;20134;-65
2023/10/16 09:14:39;;;;;;;17.00;15.95;;;;;;;;;;4980105;28;20089;-65
2023/10/16 09:17:06;;;;;;;16.80;15.77;;;;;;;;;;4981541;28;20663;-65
2023/10/16 09:19:34;;;;;;;16.63;15.63;;;;;;;;;;4981483;28;20091;-65
2023/10/16 09:22:09;;;;;;;17.17;16.08;;;;;;;;;;4979649;28;20268;-65
2023/10/16 09:24:35;;;;;;;18.02;16.90;;;;;;;;;;4981396;28;20586;-65
2023/10/16 09:27:22;;;;;;;17.48;16.38;;;;;;;;;;4978146;28;20041;-65
2023/10/16 09:29:55;;;;;;;17.05;16.05;;;;;;;;;;4977685;28;20053;-65
2023/10/16 09:32:34;;;;;;;16.00;15.00;;;;;;;;;;4975431;28;20031;-65
2023/10/16 09:35:05;;;;;;;16.42;15.43;;;;;;;;;;4980023;28;20612;-66
2023/10/16 09:37:36;;;;;;;17.88;16.77;;;;;;;;;;4979862;28;20092;-66
2023/10/16 09:40:18;;;;;;;;;;;;;;;;;;4978487;28;20030;-66
2023/10/16 09:43:07;;;;;;;17.17;15.95;;;;;;;;;;4980370;28;19917;-66
2023/10/16 09:45:36;;;;;;;15.32;14.43;;;;;;;;;;4977527;28;20038;-66
2023/10/16 09:48:19;;;;;;;17.45;16.38;;;;;;;;;;4981184;28;20530;-65
2023/10/16 09:50:45;;;;;;;17.15;16.10;;;;;;;;;;4976986;28;20042;-65
2023/10/16 09:53:11;;;;;;;16.95;15.85;;;;;;;;;;4974676;28;20053;-65
2023/10/16 09:55:44;;;;;;;18.63;17.23;;;;;;;;;;4977729;28;20921;-65
2023/10/16 09:58:11;;;;;;;16.58;15.68;;;;;;;;;;4980221;28;20026;-65
2023/10/16 10:00:40;;;;;;;18.15;16.98;;;;;;;;;;4974800;28;20039;-65
2023/10/16 10:03:07;;;;;;;20.38;19.20;;;;;;;;;;4975187;28;20626;-65
2023/10/16 10:06:22;;;;;;;20.30;18.65;;;;;;;;;;4975928;28;20084;-66
2023/10/16 10:08:52;;;;;;;19.95;18.77;;;;;;;;;;4966114;28;20129;-66
2023/10/16 10:11:38;;;;;;;20.17;18.73;;;;;;;;;;4976278;28;20372;-66
2023/10/16 10:14:26;;;;;;;20.67;19.52;;;;;;;;;;4977464;28;20593;-67
2023/10/16 10:16:58;;;;;;;18.70;17.60;;;;;;;;;;4974979;28;20386;-66
2023/10/16 10:19:46;;;;;;;20.02;18.38;;;;;;;;;;4976226;28;20408;-66
2023/10/16 10:22:22;;;;;;;18.80;17.70;;;;;;;;;;4978710;28;20045;-66
2023/10/16 10:24:51;;;;;;;18.02;17.02;;;;;;;;;;4977732;28;20035;-66
2023/10/16 10:27:17;;;;;;;20.58;19.40;;;;;;;;;;4975838;28;20047;-66
2023/10/16 10:29:49;;;;;;;17.85;16.85;;;;;;;;;;4979855;28;20042;-67
2023/10/16 10:32:14;;;;;;;19.75;18.63;;;;;;;;;;4977596;28;20038;-66
2023/10/16 10:34:42;;;;;;;20.48;19.23;;;;;;;;;;4979755;28;20035;-66
2023/10/16 10:37:44;;;;;;;18.45;17.45;;;;;;;;;;4974860;28;20030;-67
2023/10/16 10:40:18;;;;;;;18.67;17.38;;;;;;;;;;4977449;28;20047;-66
2023/10/16 10:42:45;;;;;;;18.13;17.13;;;;;;;;;;4975968;28;20435;-66
2023/10/16 10:45:17;;;;;;;20.88;19.35;;;;;;;;;;4976702;28;20499;-66
2023/10/16 10:47:43;;;;;;;17.02;16.02;;;;;;;;;;4978190;28;20243;-66
2023/10/16 10:50:14;;;;;;;18.17;17.08;;;;;;;;;;4978243;28;20125;-67
2023/10/16 10:52:41;;;;;;;19.10;18.05;;;;;;;;;;4979947;28;20045;-64
2023/10/16 10:55:18;;;;;;;20.20;18.83;;;;;;;;;;4978653;28;20543;-68
2023/10/16 10:57:48;;;;;;;15.52;14.63;;;;;;;;;;4982827;28;20656;-65
2023/10/16 11:03:41;;;;;;;16.50;15.60;;;;;;;;;;4984008;28;20488;-65
2023/10/16 11:05:40;;;;;;;17.45;16.45;;;;;;;;;;4973149;28;20530;-64
2023/10/16 11:10:44;;;;;;;14.85;14.00;;;;;;;;;;4979502;28;20069;-63
2023/10/16 11:13:11;;;;;;;15.23;14.32;;;;;;;;;;4978851;28;20338;-65
2023/10/16 11:15:47;;;;;;;14.18;13.38;;;;;;;;;;4980566;28;20042;-66
2023/10/16 11:18:13;;;;;;;18.67;17.65;;;;;;;;;;4980444;28;20061;-65
2023/10/16 11:20:45;;;;;;;17.00;16.00;;;;;;;;;;4995338;28;20293;-66
2023/10/16 11:23:14;;;;;;;15.93;15.02;;;;;;;;;;4982142;28;20051;-67
2023/10/16 11:25:50;;;;;;;18.00;17.00;;;;;;;;;;4979641;28;20144;-63
2023/10/16 11:28:32;;;;;;;19.50;18.35;;;;;;;;;;4979318;28;20748;-64
2023/10/16 11:31:00;;;;;;;17.95;16.85;;;;;;;;;;4982489;28;20460;-64
2023/10/16 11:33:45;;;;;;;21.75;20.55;;;;;;;;;;4980374;28;20092;-64
2023/10/16 11:36:14;;;;;;;20.90;19.73;;;;;;;;;;4978146;28;20041;-66
2023/10/16 11:38:40;;;;;;;20.90;19.75;;;;;;;;;;4980893;28;20451;-64
2023/10/16 11:41:12;;;;;;;22.60;21.40;;;;;;;;;;4978643;28;20042;-64
2023/10/16 11:43:51;;;;;;;20.17;19.08;;;;;;;;;;4978430;28;20058;-64
2023/10/16 11:46:29;;;;;;;19.95;18.83;;;;;;;;;;4976999;28;20034;-67
2023/10/16 11:51:52;;;;;;;20.00;18.90;;;;;;;;;;4980771;28;20414;-66
2023/10/16 11:54:20;;;;;;;20.65;19.45;;;;;;;;;;4980633;28;20061;-67
2023/10/16 11:56:47;;;;;;;20.73;19.58;;;;;;;;;;4980303;28;20038;-64
2023/10/16 11:59:15;;;;;;;23.83;22.52;;;;;;;;;;4981813;28;20038;-64
2023/10/16 12:01:41;;;;;;;22.88;21.63;;;;;;;;;;4979727;28;20392;-64
2023/10/16 12:04:06;;;;;;;24.05;22.75;;;;;;;;;;4981794;28;20030;-66
2023/10/16 12:06:33;;;;;;;24.58;23.27;;;;;;;;;;4980783;28;20026;-64
2023/10/16 12:08:59;;;;;;;20.95;19.85;;;;;;;;;;4979783;28;20034;-64
2023/10/16 12:11:24;;;;;;;20.73;19.60;;;;;;;;;;4979785;28;20559;-64
2023/10/16 12:13:51;;;;;;;21.85;20.65;;;;;;;;;;4981768;28;20137;-64
2023/10/16 12:16:17;;;;;;;22.77;21.58;;;;;;;;;;4983357;28;20369;-64
2023/10/16 12:18:43;;;;;;;22.42;21.13;;;;;;;;;;4981412;28;20061;-64
2023/10/16 12:21:12;;;;;;;24.58;23.27;;;;;;;;;;4980699;28;20933;-65
2023/10/16 12:23:38;;;;;;;23.08;21.88;;;;;;;;;;4978646;28;20038;-67
2023/10/16 12:26:05;;;;;;;21.73;20.52;;;;;;;;;;4979716;28;20027;-66
2023/10/16 12:28:31;;;;;;;22.83;21.63;;;;;;;;;;4982047;28;20042;-68
2023/10/16 12:30:57;;;;;;;22.60;21.27;;;;;;;;;;4982254;28;20046;-64
2023/10/16 12:33:26;;;;;;;21.25;20.15;;;;;;;;;;4980588;28;20052;-63
2023/10/16 12:35:55;;;;;;;25.60;23.13;;;;;;;;;;4979623;28;20043;-67
2023/10/16 12:38:24;;;;;;;20.90;19.80;;;;;;;;;;4979359;28;20061;-66
2023/10/16 12:40:53;;;;;;;24.27;22.98;;;;;;;;;;4981008;28;20030;-67
2023/10/16 12:43:20;;;;;;;22.40;21.13;;;;;;;;;;4979291;28;20128;-64
2023/10/16 12:45:45;;;;;;;19.85;18.75;;;;;;;;;;4980338;28;20368;-67
2023/10/16 12:48:11;;;;;;;20.50;19.40;;;;;;;;;;4980249;28;20031;-66
2023/10/16 12:50:36;;;;;;;19.27;17.98;;;;;;;;;;4980585;28;20416;-65
2023/10/16 12:53:02;;;;;;;20.90;19.70;;;;;;;;;;4976558;28;20080;-66
2023/10/16 12:55:28;;;;;;;21.83;20.63;;;;;;;;;;4980113;28;20053;-66
2023/10/16 12:57:54;;;;;;;20.50;19.40;;;;;;;;;;4978970;28;20469;-66
2023/10/16 13:00:21;;;;;;;20.10;19.00;;;;;;;;;;4979587;28;20104;-65
2023/10/16 13:02:51;;;;;;;22.05;20.70;;;;;;;;;;4978294;28;20042;-67
2023/10/16 13:05:17;;;;;;;21.50;20.30;;;;;;;;;;4978958;28;20041;-67
2023/10/16 13:07:44;;;;;;;24.02;22.73;;;;;;;;;;4976359;28;20129;-68
2023/10/16 13:10:14;;;;;;;20.42;19.33;;;;;;;;;;4977801;28;20072;-66
2023/10/16 13:12:41;;;;;;;21.95;20.65;;;;;;;;;;4977476;28;20470;-66
2023/10/16 13:15:09;;;;;;;23.75;22.25;;;;;;;;;;4976837;28;20040;-68
2023/10/16 13:17:36;;;;;;;19.98;18.88;;;;;;;;;;4979862;28;20042;-66
2023/10/16 13:20:04;;;;;;;22.77;21.48;;;;;;;;;;4981268;28;20066;-67
2023/10/16 13:22:31;;;;;;;22.92;21.73;;;;;;;;;;4980867;28;20065;-66
2023/10/16 13:24:56;;;;;;;21.60;20.45;;;;;;;;;;4978268;28;20030;-66
2023/10/16 13:27:21;;;;;;;21.70;20.50;;;;;;;;;;4978899;28;20049;-66
2023/10/16 13:29:47;;;;;;;23.95;22.50;;;;;;;;;;4979857;28;20038;-67
2023/10/16 13:32:13;;;;;;;22.85;20.98;;;;;;;;;;4979965;28;20125;-68
2023/10/16 13:34:38;;;;;;;22.55;21.35;;;;;;;;;;4981852;28;20034;-67
2023/10/16 13:37:10;;;;;;;21.85;20.58;;;;;;;;;;4980854;28;20053;-67
2023/10/16 13:39:41;;;;;;;22.90;21.58;;;;;;;;;;4981167;28;20538;-67
2023/10/16 13:42:08;;;;;;;22.90;21.67;;;;;;;;;;4977165;28;20104;-66
2023/10/16 13:44:35;;;;;;;23.88;22.58;;;;;;;;;;4980545;28;20038;-68
2023/10/16 13:47:05;;;;;;;23.25;21.95;;;;;;;;;;4964115;28;20058;-68
2023/10/16 13:49:31;;;;;;;21.92;20.73;;;;;;;;;;4979520;28;20037;-68
2023/10/16 13:51:58;;;;;;;22.83;21.60;;;;;;;;;;4980586;28;20058;-68
2023/10/16 13:54:24;;;;;;;23.40;22.00;;;;;;;;;;4977774;28;20046;-68
2023/10/16 13:56:50;;;;;;;24.92;23.52;;;;;;;;;;4979608;28;20038;-68
2023/10/16 13:59:18;;;;;;;29.88;22.85;;;;;;;;;;4977832;28;20030;-67
2023/10/16 14:01:43;;;;;;;22.60;21.40;;;;;;;;;;4981793;28;20061;-67
2023/10/16 14:04:16;;;;;;;21.35;20.17;;;;;;;;;;4979285;28;20066;-68
2023/10/16 14:06:51;;;;;;;22.13;20.92;;;;;;;;;;4978230;28;20117;-68
2023/10/16 14:09:19;;;;;;;22.23;20.83;;;;;;;;;;4976270;28;20030;-68
2023/10/16 14:11:48;;;;;;;24.23;22.92;;;;;;;;;;4981391;28;20408;-67
2023/10/16 14:14:21;;;;;;;35.35;33.03;;;;;;;;;;4976979;28;20042;-66
2023/10/16 14:16:50;;;;;;;24.42;23.13;;;;;;;;;;4981219;28;20041;-68
2023/10/16 14:19:22;;;;;;;32.40;30.10;;;;;;;;;;4980930;28;20018;-68
2023/10/16 14:21:52;;;;;;;24.20;22.90;;;;;;;;;;4976860;28;20069;-68
2023/10/16 14:24:25;;;;;;;22.95;21.75;;;;;;;;;;4978650;28;20545;-68
2023/10/16 14:26:58;;;;;;;22.70;21.50;;;;;;;;;;4982297;28;20042;-68
2023/10/16 14:29:24;;;;;;;22.38;21.17;;;;;;;;;;4981461;28;20027;-68
2023/10/16 14:31:51;;;;;;;23.00;21.80;;;;;;;;;;4985497;28;20038;-68
2023/10/16 14:34:23;;;;;;;22.67;21.45;;;;;;;;;;4983998;28;20097;-67
2023/10/16 14:36:50;;;;;;;21.98;20.77;;;;;;;;;;4983330;28;20050;-67
2023/10/16 14:39:17;;;;;;;21.95;20.75;;;;;;;;;;4984633;28;20035;-67
2023/10/16 14:41:44;;;;;;;20.45;19.35;;;;;;;;;;4982923;28;20038;-68
2023/10/16 14:44:12;;;;;;;21.60;20.38;;;;;;;;;;4987730;28;20701;-67
2023/10/16 14:46:38;;;;;;;21.30;20.20;;;;;;;;;;4983865;28;20638;-67
2023/10/16 14:49:08;;;;;;;21.98;20.77;;;;;;;;;;4982182;28;20042;-66
2023/10/16 14:51:35;;;;;;;22.60;21.33;;;;;;;;;;4982100;28;20038;-64
2023/10/16 14:54:01;;;;;;;24.50;23.20;;;;;;;;;;4983375;28;20042;-67
2023/10/16 14:56:26;;;;;;;22.00;20.80;;;;;;;;;;4981833;28;20026;-67
2023/10/16 14:58:52;;;;;;;23.42;22.13;;;;;;;;;;4982263;28;20041;-67
2023/10/16 15:01:19;;;;;;;21.33;20.23;;;;;;;;;;4980937;28;20254;-67
2023/10/16 15:03:46;;;;;;;20.73;19.63;;;;;;;;;;4981269;28;20093;-66
2023/10/16 15:06:13;;;;;;;20.67;19.58;;;;;;;;;;4978458;28;20065;-67
2023/10/16 15:08:43;;;;;;;21.35;20.15;;;;;;;;;;4980628;28;20042;-65
2023/10/16 15:11:12;;;;;;;20.13;19.02;;;;;;;;;;4983089;28;20070;-67
2023/10/16 15:13:39;;;;;;;20.95;19.85;;;;;;;;;;4986052;28;20030;-68
2023/10/16 15:16:07;;;;;;;21.17;20.02;;;;;;;;;;4983561;28;20066;-67
2023/10/16 15:18:38;;;;;;;22.98;21.58;;;;;;;;;;4981223;28;20648;-67
2023/10/16 15:21:06;;;;;;;23.13;21.90;;;;;;;;;;4983545;28;20026;-70
2023/10/16 15:23:32;;;;;;;22.55;21.35;;;;;;;;;;4978648;28;20068;-67
2023/10/16 15:25:58;;;;;;;20.42;19.33;;;;;;;;;;4978446;28;20117;-65
2023/10/16 15:28:25;;;;;;;20.77;19.67;;;;;;;;;;4979125;28;20125;-65
2023/10/16 15:30:53;;;;;;;20.17;19.08;;;;;;;;;;4984565;28;20607;-65
2023/10/16 15:33:20;;;;;;;22.77;21.58;;;;;;;;;;4981372;28;20026;-64
2023/10/16 15:35:48;;;;;;;20.98;19.88;;;;;;;;;;4982207;28;20086;-65
2023/10/16 15:38:13;;;;;;;22.63;21.42;;;;;;;;;;4977200;28;20030;-64
2023/10/16 15:40:43;;;;;;;20.02;18.92;;;;;;;;;;4982380;28;20035;-64
2023/10/16 15:43:08;;;;;;;21.25;20.15;;;;;;;;;;4979129;28;20022;-66
2023/10/16 15:45:38;;;;;;;21.30;20.10;;;;;;;;;;4979248;28;20114;-67
2023/10/16 15:48:07;;;;;;;22.70;21.50;;;;;;;;;;4983209;28;20038;-67
2023/10/16 15:50:35;;;;;;;21.00;19.90;;;;;;;;;;4980676;28;20092;-69
2023/10/16 15:53:03;;;;;;;20.25;19.15;;;;;;;;;;4982808;28;20092;-68
2023/10/16 15:55:29;;;;;;;21.73;20.50;;;;;;;;;;4982523;28;20065;-69
2023/10/16 15:57:56;;;;;;;22.02;20.83;;;;;;;;;;4977417;28;20062;-69
2023/10/16 16:00:26;;;;;;;20.23;19.13;;;;;;;;;;4977767;28;20044;-68
2023/10/16 16:02:53;;;;;;;19.98;18.88;;;;;;;;;;4980927;28;20114;-66
2023/10/16 16:05:18;;;;;;;19.63;18.52;;;;;;;;;;4979574;28;20695;-63
2023/10/16 16:07:43;;;;;;;21.00;19.88;;;;;;;;;;4980214;28;20044;-65
2023/10/16 16:10:10;;;;;;;19.75;18.65;;;;;;;;;;4982140;28;20142;-64
2023/10/16 16:12:39;;;;;;;20.60;19.50;;;;;;;;;;4980490;28;20038;-64
2023/10/16 16:15:06;;;;;;;16.83;15.88;;;;;;;;;;4965152;28;20049;-64
2023/10/16 16:17:32;;;;;;;16.73;15.75;;;;;;;;;;4983536;28;20042;-68
2023/10/16 16:19:57;;;;;;;15.43;14.52;;;;;;;;;;4979563;28;20038;-64
2023/10/16 16:22:22;;;;;;;17.55;16.55;;;;;;;;;;4979468;28;20038;-65
2023/10/16 16:24:48;;;;;;;25.90;15.85;;;;;;;;;;4977321;28;20112;-63
2023/10/16 16:27:14;;;;;;;16.80;15.90;;;;;;;;;;4979549;28;20061;-63
2023/10/16 16:29:40;;;;;;;15.82;14.93;;;;;;;;;;4980556;28;20030;-63
2023/10/16 16:32:06;;;;;;;14.88;14.07;;;;;;;;;;4978662;28;20504;-63
2023/10/16 16:34:33;;;;;;;15.05;14.15;;;;;;;;;;4982685;28;20038;-63
2023/10/16 16:36:58;;;;;;;14.65;13.82;;;;;;;;;;4983127;28;20525;-67
2023/10/16 16:39:34;;;;;;;15.30;14.40;;;;;;;;;;4976945;28;20034;-67
2023/10/16 16:42:00;;;;;;;15.02;14.13;;;;;;;;;;4977633;28;20596;-61
2023/10/16 16:44:26;;;;;;;14.57;13.77;;;;;;;;;;4975248;28;20504;-70